Flugplatz LSV Bückeburg Weinberg (UL)

Hier findest Du alle Informationen zum Flugplatz LSV Bückeburg Weinberg (UL).

Informationen für Piloten zum Flugplatz LSV Bückeburg Weinberg

Hier findest Du alle relevanten Informationen, die Du als Pilot benötigst, um LSV Bückeburg Weinberg anzufliegen.

Flugplatz: LSV Bückeburg Weinberg ICAO-Code: UL Flugplatz
Frequenz Turm: 129,97 Mhz GAFOR Gebiet: -
Frequenz Ground: 129,97 Mhz Mogas: nein
Platzrunde: N 0 ft Landegebühr: -
Platzhöhe: Sunrise: 04:03 Uhr UTC
Pisten: 09/27 - 800 m x 100 m, GRAS Sunset: 18:53 Uhr UTC

Flugwetter am Flugplatz LSV Bückeburg Weinberg

Die METAR Information stammen aus EDDV (50.54 km entfernt).

METAR Code:
2022/08/12 12:20
EDDV 121220Z AUTO 12008KT 080V190 CAVOK 30/07 Q1020 NOSIG

Flugschulen am Flugplatz LSV Bückeburg Weinberg

Am Flugplatz LSV Bückeburg Weinberg gibt es leider keine Flugschule.

Benachbarte Flugplätze und Flugschulen

Es gibt 13 weitere Flugplätze in einem Umkreis von 50 km um den Flugplatz LSV Bückeburg Weinberg.

Jetzt anmelden

Passwort vergessen

Umfrage Archiv

Sendet Ihr ADS-B und/oder FLARM?

Ja
83.4 %
Nein
16.6 %
Stimmen: 199 | Diskussion
Anzeige: Roland Aircraft
Statistik Alle Mitglieder

Aktuell sind 74 Besucher online, davon 3 Mitglieder und 71 Gäste.


Mitglieder online:
Willi  Trial  lucabert 

Anzeige: ULPower Aero Engines Anzeige: Pocket FMS